createdAt,value
2022-09-20T00:04:45.046Z,1.35
2022-09-20T00:09:46.531Z,1.90
2022-09-20T00:14:48.001Z,1.30
2022-09-20T00:19:49.449Z,1.38
2022-09-20T00:24:50.821Z,1.15
2022-09-20T00:29:53.243Z,1.50
2022-09-20T00:35:10.954Z,1.35
2022-09-20T00:40:17.140Z,1.50
2022-09-20T00:45:23.016Z,1.40
2022-09-20T00:50:27.933Z,1.20
2022-09-20T00:55:30.118Z,1.27
2022-09-20T01:00:32.191Z,2.22
2022-09-20T01:05:34.543Z,1.67
2022-09-20T01:10:36.570Z,1.13
2022-09-20T01:15:39.751Z,0.93
2022-09-20T01:20:43.532Z,1.30
2022-09-20T01:26:03.290Z,1.35
2022-09-20T01:31:04.762Z,1.20
2022-09-20T01:36:06.867Z,1.17
2022-09-20T01:41:22.331Z,1.55
2022-09-20T01:46:28.548Z,1.30
2022-09-20T01:51:59.746Z,1.17
2022-09-20T01:57:17.844Z,1.17
2022-09-20T02:02:44.216Z,1.50
2022-09-20T02:08:01.630Z,1.30
2022-09-20T02:13:38.568Z,1.80
2022-09-20T02:19:01.760Z,1.20
2022-09-20T02:24:06.406Z,1.35
2022-09-20T02:29:36.207Z,1.90
2022-09-20T02:34:47.044Z,1.10
2022-09-20T02:45:44.173Z,1.00
2022-09-20T02:51:16.193Z,1.10
2022-09-20T02:56:29.594Z,1.15
2022-09-20T03:01:56.296Z,1.23
2022-09-20T03:07:20.671Z,1.38
2022-09-20T03:12:57.279Z,0.82
2022-09-20T03:18:21.250Z,0.95
2022-09-20T03:23:33.034Z,1.58
2022-09-20T03:28:50.155Z,1.15
2022-09-20T03:34:03.635Z,1.67
2022-09-20T03:39:31.734Z,1.52
2022-09-20T03:44:34.188Z,1.20
2022-09-20T03:49:55.119Z,1.13
2022-09-20T03:55:41.576Z,1.60
2022-09-20T04:01:03.281Z,1.10
2022-09-20T04:06:20.605Z,1.08
2022-09-20T04:11:38.312Z,1.80
2022-09-20T04:16:50.831Z,1.30
2022-09-20T04:21:58.027Z,1.30
2022-09-20T04:27:05.131Z,1.63
2022-09-20T04:32:25.499Z,2.80
2022-09-20T04:37:33.017Z,1.60
2022-09-20T04:43:04.054Z,1.60
2022-09-20T04:48:24.879Z,1.88
2022-09-20T04:53:51.281Z,1.42
2022-09-20T04:59:30.608Z,1.35
2022-09-20T05:04:59.325Z,1.20
2022-09-20T05:10:32.190Z,1.42
2022-09-20T05:15:36.924Z,1.20
2022-09-20T05:21:29.206Z,2.28
2022-09-20T05:27:00.046Z,1.98
2022-09-20T05:38:06.111Z,1.60
2022-09-20T05:43:14.315Z,1.50
2022-09-20T05:49:01.035Z,3.92
2022-09-20T05:54:39.653Z,3.90
2022-09-20T05:59:56.752Z,1.90
2022-09-20T06:05:40.133Z,1.63
2022-09-20T06:10:41.841Z,2.20
2022-09-20T06:16:25.452Z,1.45
2022-09-20T06:21:48.564Z,1.35
2022-09-20T06:26:54.160Z,1.15
2022-09-20T06:31:56.723Z,1.52
2022-09-20T06:37:29.820Z,0.98
2022-09-20T06:42:31.988Z,1.33
2022-09-20T06:47:38.117Z,1.65
2022-09-20T06:52:43.436Z,1.05
2022-09-20T06:57:46.868Z,1.05
2022-09-20T07:02:51.100Z,1.05
2022-09-20T07:08:00.004Z,0.90
2022-09-20T07:13:04.445Z,1.42
2022-09-20T07:18:08.251Z,1.10
2022-09-20T07:23:10.677Z,0.90
2022-09-20T07:28:15.254Z,1.23
2022-09-20T07:33:21.621Z,1.10
2022-09-20T07:38:23.408Z,1.30
2022-09-20T07:43:25.264Z,1.25
2022-09-20T07:48:31.038Z,2.20
2022-09-20T07:53:32.996Z,1.17
2022-09-20T07:58:36.461Z,1.23
2022-09-20T08:03:42.428Z,1.10
2022-09-20T08:08:44.214Z,0.95
2022-09-20T08:14:07.709Z,1.77
2022-09-20T08:19:23.934Z,1.25
2022-09-20T08:24:26.780Z,1.50
2022-09-20T08:29:29.280Z,1.20
2022-09-20T08:34:31.817Z,1.08
2022-09-20T08:45:05.414Z,1.05
2022-09-20T08:50:17.327Z,0.95
2022-09-20T08:55:28.293Z,1.13
2022-09-20T09:00:33.316Z,1.20
2022-09-20T09:05:47.159Z,1.23
2022-09-20T09:10:58.824Z,1.20
2022-09-20T09:16:12.827Z,1.17
2022-09-20T09:21:43.011Z,1.05
2022-09-20T09:26:44.763Z,1.10
2022-09-20T09:31:49.117Z,0.95
2022-09-20T09:36:50.599Z,1.17
2022-09-20T09:41:52.123Z,1.13
2022-09-20T09:46:54.121Z,0.98
2022-09-20T09:51:55.607Z,0.60
2022-09-20T09:57:05.700Z,0.70
2022-09-20T10:02:19.458Z,1.20
2022-09-20T10:07:29.831Z,0.82
2022-09-20T10:12:49.856Z,0.75
2022-09-20T10:17:57.477Z,0.80
2022-09-20T10:24:01.439Z,0.68
2022-09-20T10:28:59.010Z,0.77
2022-09-20T10:34:17.470Z,1.02
2022-09-20T10:39:41.123Z,0.60
2022-09-20T10:45:53.389Z,0.90
2022-09-20T10:51:00.157Z,1.08
2022-09-20T10:56:24.488Z,0.80
2022-09-20T11:02:08.477Z,0.50
2022-09-20T11:07:53.381Z,0.93
2022-09-20T11:13:02.865Z,0.90
2022-09-20T11:18:24.528Z,1.13
2022-09-20T11:23:56.607Z,1.27
2022-09-20T11:29:09.105Z,0.70
2022-09-20T11:34:20.153Z,0.88
2022-09-20T11:39:48.077Z,0.65
2022-09-20T11:44:50.640Z,1.42
2022-09-20T11:50:04.094Z,0.80
2022-09-20T11:55:25.174Z,0.60
2022-09-20T12:00:31.475Z,0.65
2022-09-20T12:05:42.323Z,0.77
2022-09-20T12:10:58.587Z,0.70
2022-09-20T12:16:05.123Z,1.00
2022-09-20T12:21:15.379Z,0.63
2022-09-20T12:26:23.146Z,0.60
2022-09-20T12:31:33.796Z,0.70
2022-09-20T12:36:38.324Z,0.60
2022-09-20T12:42:10.326Z,0.70
2022-09-20T12:47:11.695Z,0.88
2022-09-20T12:52:58.900Z,0.77
2022-09-20T12:58:02.359Z,0.85
2022-09-20T13:03:31.819Z,0.63
2022-09-20T13:08:48.192Z,0.88
2022-09-20T13:13:58.279Z,0.60
2022-09-20T13:19:07.429Z,0.77
2022-09-20T13:24:17.459Z,0.82
2022-09-20T13:29:40.614Z,0.50
2022-09-20T13:34:41.999Z,0.70
2022-09-20T13:39:43.746Z,0.70
2022-09-20T13:44:46.096Z,0.55
2022-09-20T13:49:47.620Z,0.70
2022-09-20T13:54:49.150Z,0.85
2022-09-20T13:59:50.931Z,0.63
2022-09-20T14:04:56.132Z,0.98
2022-09-20T14:09:58.876Z,0.60
2022-09-20T14:15:04.687Z,0.60
2022-09-20T14:20:06.857Z,0.63
2022-09-20T14:25:14.426Z,0.68
2022-09-20T14:30:31.769Z,0.60
2022-09-20T14:35:33.679Z,0.40
2022-09-20T14:40:44.844Z,1.02
2022-09-20T14:45:53.323Z,0.70
2022-09-20T14:51:18.080Z,0.77
2022-09-20T14:56:37.698Z,0.60
2022-09-20T15:01:42.591Z,0.73
2022-09-20T15:06:44.251Z,0.70
2022-09-20T15:11:45.733Z,0.60
2022-09-20T15:16:47.345Z,1.20
2022-09-20T15:21:48.953Z,1.30
2022-09-20T15:26:50.422Z,1.10
2022-09-20T15:31:52.062Z,0.70
2022-09-20T15:36:54.751Z,0.70
2022-09-20T15:41:56.550Z,0.85
2022-09-20T15:46:58.137Z,0.80
2022-09-20T15:51:59.830Z,1.02
2022-09-20T15:57:02.025Z,1.27
2022-09-20T16:02:03.671Z,0.60
2022-09-20T16:07:05.749Z,0.88
2022-09-20T16:12:07.390Z,0.85
2022-09-20T16:17:08.844Z,0.80
2022-09-20T16:22:10.796Z,0.90
2022-09-20T16:27:12.222Z,0.73
2022-09-20T16:32:13.767Z,1.10
2022-09-20T16:37:16.963Z,1.13
2022-09-20T16:42:18.636Z,1.50
2022-09-20T16:47:25.103Z,1.10
2022-09-20T16:52:26.646Z,1.52
2022-09-20T16:57:28.885Z,0.85
2022-09-20T17:02:30.281Z,0.80
2022-09-20T17:07:32.117Z,1.00
2022-09-20T17:12:34.502Z,1.67
2022-09-20T17:17:35.973Z,1.20
2022-09-20T17:22:37.589Z,1.15
2022-09-20T17:27:39.200Z,1.15
2022-09-20T17:32:48.122Z,1.10
2022-09-20T17:37:49.545Z,1.80
2022-09-20T17:42:50.974Z,1.40
2022-09-20T17:47:56.748Z,2.05
2022-09-20T17:52:58.195Z,2.25
2022-09-20T17:58:00.163Z,1.88
2022-09-20T18:03:04.865Z,2.47
2022-09-20T18:08:06.711Z,3.58
2022-09-20T18:13:08.306Z,4.13
2022-09-20T18:18:09.709Z,6.78
2022-09-20T18:23:11.219Z,4.00
2022-09-20T18:28:12.631Z,3.00
2022-09-20T18:33:16.690Z,2.85
2022-09-20T18:38:18.941Z,2.10
2022-09-20T18:43:20.416Z,2.88
2022-09-20T18:48:24.775Z,4.18
2022-09-20T18:53:32.515Z,2.50
2022-09-20T18:58:34.875Z,2.22
2022-09-20T19:03:58.726Z,2.65
2022-09-20T19:09:10.392Z,3.08
2022-09-20T19:14:21.951Z,2.78
2022-09-20T19:19:36.586Z,2.90
2022-09-20T19:24:43.931Z,2.67
2022-09-20T19:29:45.874Z,2.97
2022-09-20T19:34:51.256Z,2.53
2022-09-20T19:40:01.933Z,4.95
2022-09-20T19:50:36.107Z,2.50
2022-09-20T19:55:37.893Z,2.05
2022-09-20T20:00:40.219Z,2.35
2022-09-20T20:06:16.875Z,2.20
2022-09-20T20:11:35.746Z,2.83
2022-09-20T20:16:53.189Z,2.38
2022-09-20T20:21:54.528Z,2.28
2022-09-20T20:26:55.935Z,2.58
2022-09-20T20:31:57.392Z,3.30
2022-09-20T20:37:00.905Z,2.13
2022-09-20T20:42:03.836Z,2.35
2022-09-20T20:47:06.604Z,1.80
2022-09-20T20:52:08.967Z,1.85
2022-09-20T20:57:10.382Z,2.03
2022-09-20T21:02:11.889Z,1.55
2022-09-20T21:07:13.305Z,1.52
2022-09-20T21:12:14.768Z,1.67
2022-09-20T21:17:16.320Z,1.60
2022-09-20T21:22:17.713Z,1.63
2022-09-20T21:27:20.662Z,2.15
2022-09-20T21:32:22.058Z,1.60
2022-09-20T21:37:23.485Z,2.15
2022-09-20T21:42:27.259Z,2.30
2022-09-20T21:47:28.817Z,1.90
2022-09-20T21:52:30.582Z,1.92
2022-09-20T21:57:32.021Z,1.73
2022-09-20T22:02:34.283Z,2.05
2022-09-20T22:07:35.733Z,1.80
2022-09-20T22:12:37.114Z,1.40
2022-09-20T22:17:38.542Z,1.38
2022-09-20T22:22:39.989Z,1.63
2022-09-20T22:27:41.369Z,1.60
2022-09-20T22:32:43.045Z,1.55
2022-09-20T22:37:44.425Z,1.65
2022-09-20T22:42:45.856Z,1.85
2022-09-20T22:47:47.384Z,1.27
2022-09-20T22:52:48.772Z,1.48
2022-09-20T22:57:53.337Z,1.60
2022-09-20T23:02:58.896Z,1.95
2022-09-20T23:08:00.449Z,1.58
2022-09-20T23:13:02.417Z,1.55
2022-09-20T23:18:05.037Z,1.70
2022-09-20T23:23:06.449Z,1.83
2022-09-20T23:28:07.850Z,1.50
2022-09-20T23:33:09.421Z,1.67
2022-09-20T23:38:11.471Z,1.35
2022-09-20T23:43:13.014Z,1.55
2022-09-20T23:48:14.392Z,1.38
2022-09-20T23:53:15.928Z,1.85
2022-09-20T23:58:17.371Z,1.33
